sensor_id;sensor_type;location;lat;lon;timestamp;P1;durP1;ratioP1;P2;durP2;ratioP2
22652;SDS011;11493;43.344;26.226;2024-03-07T00:00:19;31.00;;;16.50;;
22652;SDS011;11493;43.344;26.226;2024-03-07T00:02:50;31.38;;;14.90;;
22652;SDS011;11493;43.344;26.226;2024-03-07T00:05:24;28.77;;;16.45;;
22652;SDS011;11493;43.344;26.226;2024-03-07T00:07:59;30.60;;;16.08;;
22652;SDS011;11493;43.344;26.226;2024-03-07T00:13:57;26.08;;;16.00;;
22652;SDS011;11493;43.344;26.226;2024-03-07T00:16:26;24.70;;;15.05;;
22652;SDS011;11493;43.344;26.226;2024-03-07T00:18:55;27.42;;;15.30;;
22652;SDS011;11493;43.344;26.226;2024-03-07T00:21:23;30.50;;;15.63;;
22652;SDS011;11493;43.344;26.226;2024-03-07T00:23:52;34.53;;;17.00;;
22652;SDS011;11493;43.344;26.226;2024-03-07T00:26:20;27.27;;;16.02;;
22652;SDS011;11493;43.344;26.226;2024-03-07T00:28:48;26.30;;;16.15;;
22652;SDS011;11493;43.344;26.226;2024-03-07T00:31:17;35.20;;;17.20;;
22652;SDS011;11493;43.344;26.226;2024-03-07T00:33:45;112.88;;;56.42;;
22652;SDS011;11493;43.344;26.226;2024-03-07T00:36:34;113.75;;;55.35;;
22652;SDS011;11493;43.344;26.226;2024-03-07T00:39:03;68.05;;;34.10;;
22652;SDS011;11493;43.344;26.226;2024-03-07T00:41:31;45.05;;;23.52;;
22652;SDS011;11493;43.344;26.226;2024-03-07T00:44:01;40.40;;;20.77;;
22652;SDS011;11493;43.344;26.226;2024-03-07T00:46:51;37.45;;;21.17;;
22652;SDS011;11493;43.344;26.226;2024-03-07T00:49:27;35.17;;;16.92;;
22652;SDS011;11493;43.344;26.226;2024-03-07T00:51:59;32.55;;;16.67;;
22652;SDS011;11493;43.344;26.226;2024-03-07T00:54:29;30.20;;;15.48;;
22652;SDS011;11493;43.344;26.226;2024-03-07T00:56:57;30.90;;;17.08;;
22652;SDS011;11493;43.344;26.226;2024-03-07T00:59:26;28.63;;;16.27;;
22652;SDS011;11493;43.344;26.226;2024-03-07T01:01:56;34.63;;;16.65;;
22652;SDS011;11493;43.344;26.226;2024-03-07T01:04:28;24.52;;;14.95;;
22652;SDS011;11493;43.344;26.226;2024-03-07T01:10:07;30.50;;;14.50;;
22652;SDS011;11493;43.344;26.226;2024-03-07T01:19:13;22.50;;;13.23;;
22652;SDS011;11493;43.344;26.226;2024-03-07T01:21:41;25.75;;;14.20;;
22652;SDS011;11493;43.344;26.226;2024-03-07T01:24:11;24.27;;;13.90;;
22652;SDS011;11493;43.344;26.226;2024-03-07T01:26:39;17.90;;;12.40;;
22652;SDS011;11493;43.344;26.226;2024-03-07T01:29:07;28.20;;;14.55;;
22652;SDS011;11493;43.344;26.226;2024-03-07T01:31:36;29.38;;;13.30;;
22652;SDS011;11493;43.344;26.226;2024-03-07T01:34:04;29.48;;;13.95;;
22652;SDS011;11493;43.344;26.226;2024-03-07T01:36:49;36.80;;;15.90;;
22652;SDS011;11493;43.344;26.226;2024-03-07T01:39:19;34.95;;;15.30;;
22652;SDS011;11493;43.344;26.226;2024-03-07T01:41:47;27.98;;;13.68;;
22652;SDS011;11493;43.344;26.226;2024-03-07T01:44:16;26.60;;;14.75;;
22652;SDS011;11493;43.344;26.226;2024-03-07T01:46:44;27.85;;;14.75;;
22652;SDS011;11493;43.344;26.226;2024-03-07T01:49:16;27.48;;;14.93;;
22652;SDS011;11493;43.344;26.226;2024-03-07T01:51:44;24.52;;;14.05;;
22652;SDS011;11493;43.344;26.226;2024-03-07T01:54:14;30.40;;;14.95;;
22652;SDS011;11493;43.344;26.226;2024-03-07T01:56:55;26.17;;;14.80;;
22652;SDS011;11493;43.344;26.226;2024-03-07T01:59:36;25.73;;;14.52;;
22652;SDS011;11493;43.344;26.226;2024-03-07T02:02:12;28.15;;;14.85;;
22652;SDS011;11493;43.344;26.226;2024-03-07T02:05:01;29.42;;;16.10;;
22652;SDS011;11493;43.344;26.226;2024-03-07T02:10:02;26.20;;;14.07;;
22652;SDS011;11493;43.344;26.226;2024-03-07T02:12:40;29.65;;;14.80;;
22652;SDS011;11493;43.344;26.226;2024-03-07T02:15:50;42.70;;;18.60;;
22652;SDS011;11493;43.344;26.226;2024-03-07T02:18:18;32.85;;;17.77;;
22652;SDS011;11493;43.344;26.226;2024-03-07T02:20:48;31.67;;;15.02;;
22652;SDS011;11493;43.344;26.226;2024-03-07T02:23:17;35.78;;;18.40;;
22652;SDS011;11493;43.344;26.226;2024-03-07T02:25:47;37.22;;;16.95;;
22652;SDS011;11493;43.344;26.226;2024-03-07T02:28:53;35.55;;;16.88;;
22652;SDS011;11493;43.344;26.226;2024-03-07T02:35:43;37.95;;;17.80;;
22652;SDS011;11493;43.344;26.226;2024-03-07T02:40:49;30.52;;;16.25;;
22652;SDS011;11493;43.344;26.226;2024-03-07T02:43:18;34.13;;;16.48;;
22652;SDS011;11493;43.344;26.226;2024-03-07T02:45:46;28.38;;;15.18;;
22652;SDS011;11493;43.344;26.226;2024-03-07T02:48:14;26.80;;;14.40;;
22652;SDS011;11493;43.344;26.226;2024-03-07T02:50:42;24.83;;;14.93;;
22652;SDS011;11493;43.344;26.226;2024-03-07T02:53:10;24.60;;;14.13;;
22652;SDS011;11493;43.344;26.226;2024-03-07T02:55:40;23.33;;;13.13;;
22652;SDS011;11493;43.344;26.226;2024-03-07T02:58:08;24.02;;;14.10;;
22652;SDS011;11493;43.344;26.226;2024-03-07T03:00:36;26.17;;;14.65;;
22652;SDS011;11493;43.344;26.226;2024-03-07T03:03:04;30.65;;;13.90;;
22652;SDS011;11493;43.344;26.226;2024-03-07T03:05:32;31.85;;;14.73;;
22652;SDS011;11493;43.344;26.226;2024-03-07T03:08:01;27.00;;;13.80;;
22652;SDS011;11493;43.344;26.226;2024-03-07T03:10:29;40.58;;;15.95;;
22652;SDS011;11493;43.344;26.226;2024-03-07T03:12:59;28.48;;;14.70;;
22652;SDS011;11493;43.344;26.226;2024-03-07T03:15:28;34.20;;;16.88;;
22652;SDS011;11493;43.344;26.226;2024-03-07T03:17:57;34.47;;;16.23;;
22652;SDS011;11493;43.344;26.226;2024-03-07T03:20:27;29.80;;;14.32;;
22652;SDS011;11493;43.344;26.226;2024-03-07T03:23:01;31.05;;;15.30;;
22652;SDS011;11493;43.344;26.226;2024-03-07T03:25:33;39.53;;;16.67;;
22652;SDS011;11493;43.344;26.226;2024-03-07T03:28:05;30.98;;;16.45;;
22652;SDS011;11493;43.344;26.226;2024-03-07T03:30:36;27.33;;;14.13;;
22652;SDS011;11493;43.344;26.226;2024-03-07T03:33:05;29.23;;;15.65;;
22652;SDS011;11493;43.344;26.226;2024-03-07T03:35:33;29.00;;;14.10;;
22652;SDS011;11493;43.344;26.226;2024-03-07T03:38:02;24.67;;;14.02;;
22652;SDS011;11493;43.344;26.226;2024-03-07T03:40:30;20.75;;;14.13;;
22652;SDS011;11493;43.344;26.226;2024-03-07T03:42:59;33.47;;;14.43;;
22652;SDS011;11493;43.344;26.226;2024-03-07T03:45:28;27.20;;;13.98;;
22652;SDS011;11493;43.344;26.226;2024-03-07T03:47:58;29.70;;;14.15;;
22652;SDS011;11493;43.344;26.226;2024-03-07T03:50:27;24.25;;;13.20;;
22652;SDS011;11493;43.344;26.226;2024-03-07T03:52:55;39.45;;;18.40;;
22652;SDS011;11493;43.344;26.226;2024-03-07T03:55:24;29.70;;;16.73;;
22652;SDS011;11493;43.344;26.226;2024-03-07T03:57:52;28.85;;;15.82;;
22652;SDS011;11493;43.344;26.226;2024-03-07T04:00:20;25.30;;;14.10;;
22652;SDS011;11493;43.344;26.226;2024-03-07T04:02:51;22.85;;;13.77;;
22652;SDS011;11493;43.344;26.226;2024-03-07T04:05:19;19.60;;;13.15;;
22652;SDS011;11493;43.344;26.226;2024-03-07T04:07:49;27.17;;;14.55;;
22652;SDS011;11493;43.344;26.226;2024-03-07T04:10:17;28.73;;;14.82;;
22652;SDS011;11493;43.344;26.226;2024-03-07T04:12:46;27.25;;;14.45;;
22652;SDS011;11493;43.344;26.226;2024-03-07T04:15:14;26.80;;;14.80;;
22652;SDS011;11493;43.344;26.226;2024-03-07T04:17:45;28.85;;;15.32;;
22652;SDS011;11493;43.344;26.226;2024-03-07T04:20:16;28.50;;;15.07;;
22652;SDS011;11493;43.344;26.226;2024-03-07T04:22:46;33.90;;;15.52;;
22652;SDS011;11493;43.344;26.226;2024-03-07T04:25:16;24.50;;;14.50;;
22652;SDS011;11493;43.344;26.226;2024-03-07T04:27:44;31.67;;;17.92;;
22652;SDS011;11493;43.344;26.226;2024-03-07T04:30:13;28.50;;;14.27;;
22652;SDS011;11493;43.344;26.226;2024-03-07T04:32:43;31.85;;;15.57;;
22652;SDS011;11493;43.344;26.226;2024-03-07T04:35:12;23.02;;;14.77;;
22652;SDS011;11493;43.344;26.226;2024-03-07T04:37:46;27.83;;;15.57;;
22652;SDS011;11493;43.344;26.226;2024-03-07T04:40:15;30.58;;;16.67;;
22652;SDS011;11493;43.344;26.226;2024-03-07T04:42:45;33.67;;;17.17;;
22652;SDS011;11493;43.344;26.226;2024-03-07T04:45:15;31.83;;;16.90;;
22652;SDS011;11493;43.344;26.226;2024-03-07T04:47:44;31.75;;;17.77;;
22652;SDS011;11493;43.344;26.226;2024-03-07T04:50:14;65.68;;;23.73;;
22652;SDS011;11493;43.344;26.226;2024-03-07T04:55:16;28.70;;;14.82;;
22652;SDS011;11493;43.344;26.226;2024-03-07T04:57:45;47.20;;;19.35;;
22652;SDS011;11493;43.344;26.226;2024-03-07T05:00:14;43.67;;;20.85;;
22652;SDS011;11493;43.344;26.226;2024-03-07T05:02:47;45.78;;;22.17;;
22652;SDS011;11493;43.344;26.226;2024-03-07T05:05:18;46.88;;;22.20;;
22652;SDS011;11493;43.344;26.226;2024-03-07T05:07:51;58.03;;;26.40;;
22652;SDS011;11493;43.344;26.226;2024-03-07T05:10:19;92.03;;;41.05;;
22652;SDS011;11493;43.344;26.226;2024-03-07T05:12:48;72.50;;;37.08;;
22652;SDS011;11493;43.344;26.226;2024-03-07T05:15:16;66.10;;;36.88;;
22652;SDS011;11493;43.344;26.226;2024-03-07T05:17:44;61.10;;;33.25;;
22652;SDS011;11493;43.344;26.226;2024-03-07T05:20:13;73.28;;;36.25;;
22652;SDS011;11493;43.344;26.226;2024-03-07T05:22:42;66.90;;;31.70;;
22652;SDS011;11493;43.344;26.226;2024-03-07T05:25:15;79.05;;;37.65;;
22652;SDS011;11493;43.344;26.226;2024-03-07T05:27:45;67.95;;;31.75;;
22652;SDS011;11493;43.344;26.226;2024-03-07T05:30:16;54.22;;;24.42;;
22652;SDS011;11493;43.344;26.226;2024-03-07T05:32:44;47.97;;;21.25;;
22652;SDS011;11493;43.344;26.226;2024-03-07T05:35:15;29.00;;;18.67;;
22652;SDS011;11493;43.344;26.226;2024-03-07T05:37:47;43.40;;;19.30;;
22652;SDS011;11493;43.344;26.226;2024-03-07T05:40:19;40.65;;;19.23;;
22652;SDS011;11493;43.344;26.226;2024-03-07T05:42:47;45.78;;;22.25;;
22652;SDS011;11493;43.344;26.226;2024-03-07T05:45:15;42.38;;;21.23;;
22652;SDS011;11493;43.344;26.226;2024-03-07T05:47:44;44.28;;;19.67;;
22652;SDS011;11493;43.344;26.226;2024-03-07T05:50:14;48.38;;;20.13;;
22652;SDS011;11493;43.344;26.226;2024-03-07T05:52:43;34.10;;;19.33;;
22652;SDS011;11493;43.344;26.226;2024-03-07T05:55:11;49.88;;;21.50;;
22652;SDS011;11493;43.344;26.226;2024-03-07T05:57:43;37.08;;;20.65;;
22652;SDS011;11493;43.344;26.226;2024-03-07T06:00:12;44.63;;;22.13;;
22652;SDS011;11493;43.344;26.226;2024-03-07T06:02:42;37.22;;;19.98;;
22652;SDS011;11493;43.344;26.226;2024-03-07T06:05:10;40.15;;;20.35;;
22652;SDS011;11493;43.344;26.226;2024-03-07T06:07:43;53.97;;;22.15;;
22652;SDS011;11493;43.344;26.226;2024-03-07T06:10:12;41.90;;;20.20;;
22652;SDS011;11493;43.344;26.226;2024-03-07T06:12:44;33.08;;;14.82;;
22652;SDS011;11493;43.344;26.226;2024-03-07T06:15:16;47.38;;;19.55;;
22652;SDS011;11493;43.344;26.226;2024-03-07T06:17:44;35.88;;;19.02;;
22652;SDS011;11493;43.344;26.226;2024-03-07T06:20:13;27.15;;;16.40;;
22652;SDS011;11493;43.344;26.226;2024-03-07T06:22:49;29.50;;;15.63;;
22652;SDS011;11493;43.344;26.226;2024-03-07T06:25:18;26.77;;;15.48;;
22652;SDS011;11493;43.344;26.226;2024-03-07T06:27:51;38.83;;;15.63;;
22652;SDS011;11493;43.344;26.226;2024-03-07T06:30:19;39.78;;;15.15;;
22652;SDS011;11493;43.344;26.226;2024-03-07T06:32:47;48.08;;;24.02;;
22652;SDS011;11493;43.344;26.226;2024-03-07T06:35:16;27.40;;;17.10;;
22652;SDS011;11493;43.344;26.226;2024-03-07T06:37:46;33.85;;;15.48;;
22652;SDS011;11493;43.344;26.226;2024-03-07T06:40:14;32.47;;;15.20;;
22652;SDS011;11493;43.344;26.226;2024-03-07T06:42:47;35.08;;;15.27;;
22652;SDS011;11493;43.344;26.226;2024-03-07T06:45:17;32.17;;;16.25;;
22652;SDS011;11493;43.344;26.226;2024-03-07T06:47:46;35.22;;;16.77;;
22652;SDS011;11493;43.344;26.226;2024-03-07T06:50:14;33.17;;;16.63;;
22652;SDS011;11493;43.344;26.226;2024-03-07T06:53:02;33.35;;;17.05;;
22652;SDS011;11493;43.344;26.226;2024-03-07T06:55:30;40.45;;;17.92;;
22652;SDS011;11493;43.344;26.226;2024-03-07T06:58:00;28.85;;;14.48;;
22652;SDS011;11493;43.344;26.226;2024-03-07T07:00:32;36.03;;;16.05;;
22652;SDS011;11493;43.344;26.226;2024-03-07T07:03:04;29.13;;;15.15;;
22652;SDS011;11493;43.344;26.226;2024-03-07T07:05:33;30.00;;;14.90;;
22652;SDS011;11493;43.344;26.226;2024-03-07T07:08:03;30.90;;;16.17;;
22652;SDS011;11493;43.344;26.226;2024-03-07T07:10:33;36.78;;;15.90;;
22652;SDS011;11493;43.344;26.226;2024-03-07T07:13:03;37.78;;;16.70;;
22652;SDS011;11493;43.344;26.226;2024-03-07T07:15:33;27.75;;;16.25;;
22652;SDS011;11493;43.344;26.226;2024-03-07T07:18:03;26.08;;;14.95;;
22652;SDS011;11493;43.344;26.226;2024-03-07T07:20:34;29.35;;;15.65;;
22652;SDS011;11493;43.344;26.226;2024-03-07T07:23:02;30.17;;;16.73;;
22652;SDS011;11493;43.344;26.226;2024-03-07T07:25:31;29.67;;;16.75;;
22652;SDS011;11493;43.344;26.226;2024-03-07T07:27:59;28.10;;;15.77;;
22652;SDS011;11493;43.344;26.226;2024-03-07T07:30:27;38.47;;;16.98;;
22652;SDS011;11493;43.344;26.226;2024-03-07T07:32:57;27.00;;;15.65;;
22652;SDS011;11493;43.344;26.226;2024-03-07T07:35:25;35.05;;;16.52;;
22652;SDS011;11493;43.344;26.226;2024-03-07T07:37:53;31.80;;;17.10;;
22652;SDS011;11493;43.344;26.226;2024-03-07T07:40:23;26.35;;;15.98;;
22652;SDS011;11493;43.344;26.226;2024-03-07T07:45:22;25.63;;;15.32;;
22652;SDS011;11493;43.344;26.226;2024-03-07T07:47:52;27.75;;;15.88;;
22652;SDS011;11493;43.344;26.226;2024-03-07T07:50:23;24.42;;;15.55;;
22652;SDS011;11493;43.344;26.226;2024-03-07T07:52:52;29.77;;;16.52;;
22652;SDS011;11493;43.344;26.226;2024-03-07T07:55:22;24.27;;;15.60;;
22652;SDS011;11493;43.344;26.226;2024-03-07T07:57:52;27.55;;;15.57;;
22652;SDS011;11493;43.344;26.226;2024-03-07T08:00:22;26.35;;;15.23;;
22652;SDS011;11493;43.344;26.226;2024-03-07T08:02:56;24.15;;;14.75;;
22652;SDS011;11493;43.344;26.226;2024-03-07T08:05:28;32.47;;;16.55;;
22652;SDS011;11493;43.344;26.226;2024-03-07T08:07:58;25.73;;;13.93;;
22652;SDS011;11493;43.344;26.226;2024-03-07T08:10:29;27.80;;;15.98;;
22652;SDS011;11493;43.344;26.226;2024-03-07T08:12:58;32.10;;;16.23;;
22652;SDS011;11493;43.344;26.226;2024-03-07T08:15:28;26.17;;;15.68;;
22652;SDS011;11493;43.344;26.226;2024-03-07T08:17:57;27.33;;;15.65;;
22652;SDS011;11493;43.344;26.226;2024-03-07T08:20:28;28.75;;;15.38;;
22652;SDS011;11493;43.344;26.226;2024-03-07T08:22:57;27.65;;;15.77;;
22652;SDS011;11493;43.344;26.226;2024-03-07T08:25:27;37.47;;;16.17;;
22652;SDS011;11493;43.344;26.226;2024-03-07T08:27:57;36.45;;;17.42;;
22652;SDS011;11493;43.344;26.226;2024-03-07T08:30:25;36.03;;;20.98;;
22652;SDS011;11493;43.344;26.226;2024-03-07T08:32:56;41.25;;;22.02;;
22652;SDS011;11493;43.344;26.226;2024-03-07T08:35:25;28.20;;;18.00;;
22652;SDS011;11493;43.344;26.226;2024-03-07T08:37:56;32.08;;;17.98;;
22652;SDS011;11493;43.344;26.226;2024-03-07T08:40:24;31.90;;;17.00;;
22652;SDS011;11493;43.344;26.226;2024-03-07T08:42:58;31.67;;;16.98;;
22652;SDS011;11493;43.344;26.226;2024-03-07T08:45:27;29.25;;;16.55;;
22652;SDS011;11493;43.344;26.226;2024-03-07T08:48:01;32.50;;;16.15;;
22652;SDS011;11493;43.344;26.226;2024-03-07T08:50:33;27.70;;;16.38;;
22652;SDS011;11493;43.344;26.226;2024-03-07T08:53:04;32.70;;;15.85;;
22652;SDS011;11493;43.344;26.226;2024-03-07T08:55:34;25.90;;;14.73;;
22652;SDS011;11493;43.344;26.226;2024-03-07T08:58:03;25.50;;;15.40;;
22652;SDS011;11493;43.344;26.226;2024-03-07T09:00:34;27.55;;;15.38;;
22652;SDS011;11493;43.344;26.226;2024-03-07T09:03:05;34.75;;;15.57;;
22652;SDS011;11493;43.344;26.226;2024-03-07T09:05:40;28.17;;;15.02;;
22652;SDS011;11493;43.344;26.226;2024-03-07T09:08:09;31.98;;;13.80;;
22652;SDS011;11493;43.344;26.226;2024-03-07T09:10:38;27.95;;;16.10;;
22652;SDS011;11493;43.344;26.226;2024-03-07T09:13:09;31.20;;;15.73;;
22652;SDS011;11493;43.344;26.226;2024-03-07T09:15:37;23.42;;;13.73;;
22652;SDS011;11493;43.344;26.226;2024-03-07T09:18:05;20.83;;;13.85;;
22652;SDS011;11493;43.344;26.226;2024-03-07T09:20:35;28.15;;;12.57;;
22652;SDS011;11493;43.344;26.226;2024-03-07T09:23:05;31.08;;;13.63;;
22652;SDS011;11493;43.344;26.226;2024-03-07T09:25:34;24.98;;;14.00;;
22652;SDS011;11493;43.344;26.226;2024-03-07T09:28:02;28.52;;;14.50;;
22652;SDS011;11493;43.344;26.226;2024-03-07T09:30:32;32.60;;;14.02;;
22652;SDS011;11493;43.344;26.226;2024-03-07T09:33:04;28.17;;;15.32;;
22652;SDS011;11493;43.344;26.226;2024-03-07T09:35:37;27.77;;;15.02;;
22652;SDS011;11493;43.344;26.226;2024-03-07T09:38:08;74.75;;;37.78;;
22652;SDS011;11493;43.344;26.226;2024-03-07T09:40:37;64.13;;;32.50;;
22652;SDS011;11493;43.344;26.226;2024-03-07T09:43:09;56.55;;;30.35;;
22652;SDS011;11493;43.344;26.226;2024-03-07T09:45:40;101.45;;;43.75;;
22652;SDS011;11493;43.344;26.226;2024-03-07T09:48:14;63.75;;;32.45;;
22652;SDS011;11493;43.344;26.226;2024-03-07T09:50:44;33.10;;;21.10;;
22652;SDS011;11493;43.344;26.226;2024-03-07T09:53:15;34.13;;;21.92;;
22652;SDS011;11493;43.344;26.226;2024-03-07T09:55:46;29.70;;;16.90;;
22652;SDS011;11493;43.344;26.226;2024-03-07T09:58:15;32.80;;;15.82;;
22652;SDS011;11493;43.344;26.226;2024-03-07T10:00:46;27.48;;;15.10;;
22652;SDS011;11493;43.344;26.226;2024-03-07T10:03:17;20.13;;;14.40;;
22652;SDS011;11493;43.344;26.226;2024-03-07T10:05:48;24.05;;;17.08;;
22652;SDS011;11493;43.344;26.226;2024-03-07T10:08:20;26.65;;;15.32;;
22652;SDS011;11493;43.344;26.226;2024-03-07T10:10:51;28.90;;;14.65;;
22652;SDS011;11493;43.344;26.226;2024-03-07T10:13:22;24.98;;;14.88;;
22652;SDS011;11493;43.344;26.226;2024-03-07T10:15:52;24.43;;;14.33;;
22652;SDS011;11493;43.344;26.226;2024-03-07T10:18:22;24.73;;;13.52;;
22652;SDS011;11493;43.344;26.226;2024-03-07T10:20:52;28.73;;;14.43;;
22652;SDS011;11493;43.344;26.226;2024-03-07T10:23:23;30.67;;;13.95;;
22652;SDS011;11493;43.344;26.226;2024-03-07T10:25:51;30.90;;;15.80;;
22652;SDS011;11493;43.344;26.226;2024-03-07T10:28:21;26.83;;;14.82;;
22652;SDS011;11493;43.344;26.226;2024-03-07T10:30:49;24.00;;;11.77;;
22652;SDS011;11493;43.344;26.226;2024-03-07T10:33:17;26.23;;;13.23;;
22652;SDS011;11493;43.344;26.226;2024-03-07T10:35:47;22.67;;;14.32;;
22652;SDS011;11493;43.344;26.226;2024-03-07T10:38:16;25.30;;;14.25;;
22652;SDS011;11493;43.344;26.226;2024-03-07T10:40:48;35.70;;;14.75;;
22652;SDS011;11493;43.344;26.226;2024-03-07T10:43:21;21.48;;;14.27;;
22652;SDS011;11493;43.344;26.226;2024-03-07T10:45:52;28.38;;;15.50;;
22652;SDS011;11493;43.344;26.226;2024-03-07T10:51:00;25.33;;;13.85;;
22652;SDS011;11493;43.344;26.226;2024-03-07T10:53:37;23.48;;;12.80;;
22652;SDS011;11493;43.344;26.226;2024-03-07T10:56:24;24.73;;;15.10;;
22652;SDS011;11493;43.344;26.226;2024-03-07T10:59:11;23.63;;;14.23;;
22652;SDS011;11493;43.344;26.226;2024-03-07T11:01:47;30.58;;;14.30;;
22652;SDS011;11493;43.344;26.226;2024-03-07T11:04:21;24.30;;;14.27;;
22652;SDS011;11493;43.344;26.226;2024-03-07T11:06:50;28.48;;;16.65;;
22652;SDS011;11493;43.344;26.226;2024-03-07T11:09:20;25.65;;;15.30;;
22652;SDS011;11493;43.344;26.226;2024-03-07T11:11:52;30.13;;;15.68;;
22652;SDS011;11493;43.344;26.226;2024-03-07T11:14:20;27.80;;;14.85;;
22652;SDS011;11493;43.344;26.226;2024-03-07T11:16:50;31.58;;;17.05;;
22652;SDS011;11493;43.344;26.226;2024-03-07T11:19:25;31.40;;;16.95;;
22652;SDS011;11493;43.344;26.226;2024-03-07T11:21:55;25.48;;;14.23;;
22652;SDS011;11493;43.344;26.226;2024-03-07T11:24:24;30.08;;;16.27;;
22652;SDS011;11493;43.344;26.226;2024-03-07T11:26:57;27.63;;;16.08;;
22652;SDS011;11493;43.344;26.226;2024-03-07T11:29:38;24.35;;;14.15;;
22652;SDS011;11493;43.344;26.226;2024-03-07T11:32:12;25.92;;;14.48;;
22652;SDS011;11493;43.344;26.226;2024-03-07T11:34:41;24.83;;;16.63;;
22652;SDS011;11493;43.344;26.226;2024-03-07T11:37:16;23.67;;;14.50;;
22652;SDS011;11493;43.344;26.226;2024-03-07T11:39:49;29.83;;;16.58;;
22652;SDS011;11493;43.344;26.226;2024-03-07T11:42:26;30.25;;;16.45;;
22652;SDS011;11493;43.344;26.226;2024-03-07T11:44:57;34.72;;;17.38;;
22652;SDS011;11493;43.344;26.226;2024-03-07T11:47:27;24.52;;;16.05;;
22652;SDS011;11493;43.344;26.226;2024-03-07T11:50:05;25.55;;;15.75;;
22652;SDS011;11493;43.344;26.226;2024-03-07T11:52:39;23.40;;;14.82;;
22652;SDS011;11493;43.344;26.226;2024-03-07T11:55:08;35.83;;;17.05;;
22652;SDS011;11493;43.344;26.226;2024-03-07T11:57:39;32.05;;;16.27;;
22652;SDS011;11493;43.344;26.226;2024-03-07T12:00:11;31.90;;;18.52;;
22652;SDS011;11493;43.344;26.226;2024-03-07T12:02:41;27.55;;;16.27;;
22652;SDS011;11493;43.344;26.226;2024-03-07T12:05:11;37.42;;;23.63;;
22652;SDS011;11493;43.344;26.226;2024-03-07T12:07:43;26.55;;;18.08;;
22652;SDS011;11493;43.344;26.226;2024-03-07T12:10:16;32.20;;;17.25;;
22652;SDS011;11493;43.344;26.226;2024-03-07T12:12:53;35.90;;;18.67;;
22652;SDS011;11493;43.344;26.226;2024-03-07T12:15:23;29.65;;;16.90;;
22652;SDS011;11493;43.344;26.226;2024-03-07T12:17:51;27.40;;;16.48;;
22652;SDS011;11493;43.344;26.226;2024-03-07T12:20:20;36.00;;;18.73;;
22652;SDS011;11493;43.344;26.226;2024-03-07T12:22:58;41.20;;;19.75;;
22652;SDS011;11493;43.344;26.226;2024-03-07T12:25:29;30.77;;;18.73;;
22652;SDS011;11493;43.344;26.226;2024-03-07T12:28:01;38.00;;;20.65;;
22652;SDS011;11493;43.344;26.226;2024-03-07T12:30:32;33.22;;;16.60;;
22652;SDS011;11493;43.344;26.226;2024-03-07T12:33:02;28.30;;;16.48;;
22652;SDS011;11493;43.344;26.226;2024-03-07T12:35:35;31.73;;;17.00;;
22652;SDS011;11493;43.344;26.226;2024-03-07T12:38:04;32.13;;;16.65;;
22652;SDS011;11493;43.344;26.226;2024-03-07T12:40:32;34.15;;;18.23;;
22652;SDS011;11493;43.344;26.226;2024-03-07T12:43:13;29.77;;;16.52;;
22652;SDS011;11493;43.344;26.226;2024-03-07T12:45:44;30.60;;;17.75;;
22652;SDS011;11493;43.344;26.226;2024-03-07T12:48:15;32.83;;;18.15;;
22652;SDS011;11493;43.344;26.226;2024-03-07T12:50:45;36.42;;;17.77;;
22652;SDS011;11493;43.344;26.226;2024-03-07T12:53:17;32.72;;;16.88;;
22652;SDS011;11493;43.344;26.226;2024-03-07T12:55:45;28.60;;;16.83;;
22652;SDS011;11493;43.344;26.226;2024-03-07T12:58:15;27.80;;;17.05;;
22652;SDS011;11493;43.344;26.226;2024-03-07T13:00:43;25.77;;;15.70;;
22652;SDS011;11493;43.344;26.226;2024-03-07T13:03:11;30.50;;;15.57;;
22652;SDS011;11493;43.344;26.226;2024-03-07T13:05:41;27.60;;;16.52;;
22652;SDS011;11493;43.344;26.226;2024-03-07T13:08:09;36.58;;;18.35;;
22652;SDS011;11493;43.344;26.226;2024-03-07T13:10:39;38.03;;;19.48;;
22652;SDS011;11493;43.344;26.226;2024-03-07T13:13:07;26.85;;;17.50;;
22652;SDS011;11493;43.344;26.226;2024-03-07T13:15:39;28.60;;;18.77;;
22652;SDS011;11493;43.344;26.226;2024-03-07T13:18:09;30.73;;;17.48;;
22652;SDS011;11493;43.344;26.226;2024-03-07T13:20:37;29.88;;;18.48;;
22652;SDS011;11493;43.344;26.226;2024-03-07T13:23:05;41.30;;;19.38;;
22652;SDS011;11493;43.344;26.226;2024-03-07T13:25:34;29.77;;;19.58;;
22652;SDS011;11493;43.344;26.226;2024-03-07T13:28:04;34.00;;;18.70;;
22652;SDS011;11493;43.344;26.226;2024-03-07T13:30:35;27.80;;;19.05;;
22652;SDS011;11493;43.344;26.226;2024-03-07T13:33:05;27.30;;;18.00;;
22652;SDS011;11493;43.344;26.226;2024-03-07T13:35:33;29.10;;;16.75;;
22652;SDS011;11493;43.344;26.226;2024-03-07T13:38:02;30.63;;;20.65;;
22652;SDS011;11493;43.344;26.226;2024-03-07T13:40:31;35.67;;;23.42;;
22652;SDS011;11493;43.344;26.226;2024-03-07T13:43:01;34.10;;;20.77;;
22652;SDS011;11493;43.344;26.226;2024-03-07T13:45:30;34.90;;;21.63;;
22652;SDS011;11493;43.344;26.226;2024-03-07T13:48:05;38.38;;;21.55;;
22652;SDS011;11493;43.344;26.226;2024-03-07T13:50:34;50.38;;;30.15;;
22652;SDS011;11493;43.344;26.226;2024-03-07T13:53:22;46.58;;;26.35;;
22652;SDS011;11493;43.344;26.226;2024-03-07T13:56:27;39.35;;;22.60;;
22652;SDS011;11493;43.344;26.226;2024-03-07T13:59:10;42.13;;;24.88;;
22652;SDS011;11493;43.344;26.226;2024-03-07T14:01:56;38.17;;;24.65;;
22652;SDS011;11493;43.344;26.226;2024-03-07T14:08:04;39.67;;;20.77;;
22652;SDS011;11493;43.344;26.226;2024-03-07T14:17:06;36.60;;;21.02;;
22652;SDS011;11493;43.344;26.226;2024-03-07T14:23:04;40.42;;;23.13;;
22652;SDS011;11493;43.344;26.226;2024-03-07T14:25:43;41.72;;;23.45;;
22652;SDS011;11493;43.344;26.226;2024-03-07T14:28:40;35.38;;;21.35;;
22652;SDS011;11493;43.344;26.226;2024-03-07T14:31:20;32.78;;;19.77;;
22652;SDS011;11493;43.344;26.226;2024-03-07T14:33:54;33.92;;;20.58;;
22652;SDS011;11493;43.344;26.226;2024-03-07T14:36:35;32.83;;;20.88;;
22652;SDS011;11493;43.344;26.226;2024-03-07T14:39:09;33.22;;;21.55;;
22652;SDS011;11493;43.344;26.226;2024-03-07T14:41:42;34.40;;;21.42;;
22652;SDS011;11493;43.344;26.226;2024-03-07T14:44:15;34.30;;;22.77;;
22652;SDS011;11493;43.344;26.226;2024-03-07T14:46:46;39.60;;;22.70;;
22652;SDS011;11493;43.344;26.226;2024-03-07T14:49:17;38.10;;;22.90;;
22652;SDS011;11493;43.344;26.226;2024-03-07T14:51:45;37.40;;;22.23;;
22652;SDS011;11493;43.344;26.226;2024-03-07T14:54:27;35.40;;;23.50;;
22652;SDS011;11493;43.344;26.226;2024-03-07T14:56:59;38.33;;;25.02;;
22652;SDS011;11493;43.344;26.226;2024-03-07T14:59:27;40.75;;;26.27;;
22652;SDS011;11493;43.344;26.226;2024-03-07T15:01:55;46.55;;;27.88;;
22652;SDS011;11493;43.344;26.226;2024-03-07T15:04:26;61.05;;;29.10;;
22652;SDS011;11493;43.344;26.226;2024-03-07T15:06:58;51.65;;;27.25;;
22652;SDS011;11493;43.344;26.226;2024-03-07T15:09:30;44.58;;;26.95;;
22652;SDS011;11493;43.344;26.226;2024-03-07T15:12:00;44.78;;;26.15;;
22652;SDS011;11493;43.344;26.226;2024-03-07T15:14:30;58.20;;;31.50;;